Time;durP1;ratioP1;P1;durP2;ratioP2;P2;SDS_P1;SDS_P2;PMS_P1;PMS_P2;Temp;Humidity;BMP_temperature;BMP_pressure;BME280_temperature;BME280_humidity;BME280_pressure;Samples;Min_cycle;Max_cycle;Signal;HPM_P1;HPM_P2
2023/09/17 00:00:11;;;;;;;9.18;6.25;;;;;;;;;;7367709;19;20090;-68
2023/09/17 00:02:36;;;;;;;8.82;6.35;;;;;;;;;;7365632;19;20018;-67
2023/09/17 00:05:03;;;;;;;9.05;6.20;;;;;;;;;;7389477;19;20002;-67
2023/09/17 00:07:29;;;;;;;7.90;5.20;;;;;;;;;;7367293;19;20015;-64
2023/09/17 00:09:54;;;;;;;9.07;5.68;;;;;;;;;;7368362;19;20018;-67
2023/09/17 00:12:19;;;;;;;8.15;5.60;;;;;;;;;;7366557;19;20087;-66
2023/09/17 00:14:45;;;;;;;10.65;5.57;;;;;;;;;;7366675;19;20649;-67
2023/09/17 00:17:11;;;;;;;9.07;5.78;;;;;;;;;;7389481;19;20006;-67
2023/09/17 00:19:36;;;;;;;10.32;5.82;;;;;;;;;;7367255;19;20027;-66
2023/09/17 00:22:03;;;;;;;8.85;5.68;;;;;;;;;;7364970;19;20010;-66
2023/09/17 00:24:28;;;;;;;7.88;5.45;;;;;;;;;;7366168;19;20022;-66
2023/09/17 00:26:54;;;;;;;9.00;5.70;;;;;;;;;;7366796;19;20014;-66
2023/09/17 00:29:19;;;;;;;8.82;5.30;;;;;;;;;;7366647;19;20031;-67
2023/09/17 00:31:44;;;;;;;7.80;5.82;;;;;;;;;;7387679;19;20453;-66
2023/09/17 00:34:10;;;;;;;8.15;5.53;;;;;;;;;;7366362;19;20018;-66
2023/09/17 00:36:35;;;;;;;7.38;5.55;;;;;;;;;;7367342;19;20006;-66
2023/09/17 00:39:00;;;;;;;11.80;6.57;;;;;;;;;;7367648;19;20015;-66
2023/09/17 00:41:26;;;;;;;9.25;6.22;;;;;;;;;;7367337;19;20294;-66
2023/09/17 00:43:51;;;;;;;8.15;6.00;;;;;;;;;;7386253;19;20034;-66
2023/09/17 00:46:17;;;;;;;9.40;6.28;;;;;;;;;;7365418;19;20010;-65
2023/09/17 00:48:43;;;;;;;10.15;6.20;;;;;;;;;;7366111;19;20131;-65
2023/09/17 00:51:08;;;;;;;8.95;6.07;;;;;;;;;;7365534;19;20038;-66
2023/09/17 00:53:34;;;;;;;11.35;6.38;;;;;;;;;;7363424;19;20430;-69
2023/09/17 00:56:01;;;;;;;10.00;5.97;;;;;;;;;;7386002;19;20019;-65
2023/09/17 00:58:29;;;;;;;9.10;5.93;;;;;;;;;;7365942;19;20031;-66
2023/09/17 01:00:58;;;;;;;12.05;6.68;;;;;;;;;;7365484;19;19999;-66
2023/09/17 01:03:24;;;;;;;10.43;6.78;;;;;;;;;;7364614;19;20016;-65
2023/09/17 01:05:50;;;;;;;10.10;6.40;;;;;;;;;;7364230;19;20015;-65
2023/09/17 01:08:16;;;;;;;9.43;5.90;;;;;;;;;;7365432;19;20034;-66
2023/09/17 01:10:41;;;;;;;10.38;6.88;;;;;;;;;;7386043;19;20003;-65
2023/09/17 01:13:08;;;;;;;9.52;5.75;;;;;;;;;;7363299;19;20041;-65
2023/09/17 01:15:34;;;;;;;8.38;5.90;;;;;;;;;;7369207;19;20366;-65
2023/09/17 01:18:05;;;;;;;11.38;6.90;;;;;;;;;;7373178;19;20010;-67
2023/09/17 01:20:34;;;;;;;9.30;5.95;;;;;;;;;;7373089;19;20033;-65
2023/09/17 01:23:06;;;;;;;9.50;6.25;;;;;;;;;;7391805;19;20002;-66
2023/09/17 01:25:40;;;;;;;10.50;6.28;;;;;;;;;;7371931;19;20487;-66
2023/09/17 01:28:06;;;;;;;8.75;6.40;;;;;;;;;;7372968;19;20014;-66
2023/09/17 01:30:32;;;;;;;8.00;5.90;;;;;;;;;;7371575;19;20006;-66
2023/09/17 01:33:01;;;;;;;8.60;6.05;;;;;;;;;;7369989;19;20007;-66
2023/09/17 01:35:27;;;;;;;10.68;6.65;;;;;;;;;;7369777;19;19998;-65
2023/09/17 01:37:54;;;;;;;11.10;7.05;;;;;;;;;;7394409;19;20002;-65
2023/09/17 01:40:21;;;;;;;9.68;6.63;;;;;;;;;;7372877;19;20461;-65
2023/09/17 01:42:48;;;;;;;10.50;6.38;;;;;;;;;;7371719;19;20006;-66
2023/09/17 01:45:16;;;;;;;10.93;6.68;;;;;;;;;;7372410;19;20006;-66
2023/09/17 01:47:43;;;;;;;8.80;6.55;;;;;;;;;;7372194;19;20370;-65
2023/09/17 01:50:11;;;;;;;9.65;6.63;;;;;;;;;;7393596;19;20015;-65
2023/09/17 01:52:37;;;;;;;8.88;6.10;;;;;;;;;;7369729;19;20011;-65
2023/09/17 01:55:03;;;;;;;9.68;6.70;;;;;;;;;;7369400;19;20490;-66
2023/09/17 01:57:29;;;;;;;9.90;6.47;;;;;;;;;;7371750;19;20007;-65
2023/09/17 01:59:54;;;;;;;8.95;6.10;;;;;;;;;;7370368;19;20468;-66
2023/09/17 02:02:20;;;;;;;9.05;6.10;;;;;;;;;;7368904;19;20007;-65
2023/09/17 02:04:46;;;;;;;10.82;5.93;;;;;;;;;;7392755;19;19990;-66
2023/09/17 02:07:12;;;;;;;8.02;6.00;;;;;;;;;;7371138;19;20015;-65
2023/09/17 02:09:37;;;;;;;9.63;6.38;;;;;;;;;;7371864;19;20007;-65
2023/09/17 02:12:03;;;;;;;9.07;6.20;;;;;;;;;;7369628;19;20014;-66
2023/09/17 02:14:28;;;;;;;9.88;6.80;;;;;;;;;;7370626;19;20006;-65
2023/09/17 02:16:55;;;;;;;9.07;6.53;;;;;;;;;;7390504;19;20005;-66
2023/09/17 02:19:20;;;;;;;9.82;6.32;;;;;;;;;;7369754;19;20013;-65
2023/09/17 02:21:46;;;;;;;10.00;6.25;;;;;;;;;;7368498;19;20085;-66
2023/09/17 02:24:12;;;;;;;9.23;6.38;;;;;;;;;;7369000;19;20006;-66
2023/09/17 02:26:40;;;;;;;12.38;6.80;;;;;;;;;;7368225;19;20029;-66
2023/09/17 02:29:06;;;;;;;9.57;6.40;;;;;;;;;;7391816;19;20011;-66
2023/09/17 02:31:31;;;;;;;11.32;6.50;;;;;;;;;;7369875;19;20017;-66
2023/09/17 02:33:57;;;;;;;8.40;5.88;;;;;;;;;;7369565;19;20006;-67
2023/09/17 02:36:23;;;;;;;8.73;6.07;;;;;;;;;;7369247;19;20007;-66
2023/09/17 02:38:48;;;;;;;11.65;7.05;;;;;;;;;;7370243;19;20014;-66
2023/09/17 02:41:13;;;;;;;9.65;6.43;;;;;;;;;;7370029;19;20005;-67
2023/09/17 02:43:39;;;;;;;8.43;6.10;;;;;;;;;;7389793;19;20076;-66
2023/09/17 02:46:04;;;;;;;8.80;6.55;;;;;;;;;;7369285;19;20013;-66
2023/09/17 02:48:34;;;;;;;9.80;6.25;;;;;;;;;;7370379;19;20085;-67
2023/09/17 02:51:01;;;;;;;10.40;6.53;;;;;;;;;;7366666;19;20002;-67
2023/09/17 02:53:27;;;;;;;10.73;6.78;;;;;;;;;;7367397;19;20026;-67
2023/09/17 02:55:53;;;;;;;10.02;6.82;;;;;;;;;;7390251;19;20002;-68
2023/09/17 02:58:18;;;;;;;10.25;6.88;;;;;;;;;;7369867;19;20006;-65
2023/09/17 03:00:44;;;;;;;9.88;6.78;;;;;;;;;;7369690;19;20089;-66
2023/09/17 03:03:10;;;;;;;8.95;6.63;;;;;;;;;;7368157;19;20010;-66
2023/09/17 03:05:37;;;;;;;10.70;7.75;;;;;;;;;;7370034;19;20483;-67
2023/09/17 03:08:03;;;;;;;9.82;6.57;;;;;;;;;;7391674;19;20022;-66
2023/09/17 03:10:28;;;;;;;9.27;6.13;;;;;;;;;;7368950;19;20010;-66
2023/09/17 03:12:53;;;;;;;9.52;6.70;;;;;;;;;;7367693;19;20665;-66
2023/09/17 03:15:19;;;;;;;8.90;6.78;;;;;;;;;;7367271;19;20491;-66
2023/09/17 03:17:44;;;;;;;10.93;7.07;;;;;;;;;;7369023;19;20050;-67
2023/09/17 03:20:22;;;;;;;10.15;6.80;;;;;;;;;;7390928;19;20321;-66
2023/09/17 03:22:48;;;;;;;11.10;7.00;;;;;;;;;;7366643;19;20404;-66
2023/09/17 03:25:14;;;;;;;10.60;7.10;;;;;;;;;;7367684;19;20006;-67
2023/09/17 03:27:43;;;;;;;11.48;7.20;;;;;;;;;;7368128;19;20041;-66
2023/09/17 03:30:09;;;;;;;10.50;7.10;;;;;;;;;;7366975;19;20003;-67
2023/09/17 03:32:35;;;;;;;11.18;7.93;;;;;;;;;;7367217;19;20460;-66
2023/09/17 03:35:01;;;;;;;9.77;7.13;;;;;;;;;;7383662;19;20031;-66
2023/09/17 03:37:26;;;;;;;10.27;7.07;;;;;;;;;;7366592;19;20419;-66
2023/09/17 03:40:11;;;;;;;10.95;7.47;;;;;;;;;;7368348;19;20007;-66
2023/09/17 03:42:38;;;;;;;10.88;7.45;;;;;;;;;;7366663;19;20403;-67
2023/09/17 03:45:09;;;;;;;10.55;7.20;;;;;;;;;;7367856;19;20010;-66
2023/09/17 03:47:44;;;;;;;12.10;7.90;;;;;;;;;;7367332;19;20027;-67
2023/09/17 03:50:11;;;;;;;9.95;7.03;;;;;;;;;;7389235;19;20010;-67
2023/09/17 03:52:38;;;;;;;10.07;7.57;;;;;;;;;;7365546;19;20352;-66
2023/09/17 03:55:05;;;;;;;9.25;6.80;;;;;;;;;;7366564;19;20007;-67
2023/09/17 03:57:32;;;;;;;12.88;7.65;;;;;;;;;;7367595;19;20040;-67
2023/09/17 03:59:57;;;;;;;11.63;7.60;;;;;;;;;;7366684;19;20010;-67
2023/09/17 04:02:23;;;;;;;11.07;7.70;;;;;;;;;;7365826;19;20027;-67
2023/09/17 04:04:48;;;;;;;11.57;7.95;;;;;;;;;;7388166;19;20074;-67
2023/09/17 04:07:13;;;;;;;11.60;8.25;;;;;;;;;;7366371;19;20034;-66
2023/09/17 04:09:39;;;;;;;9.63;7.18;;;;;;;;;;7366971;19;20364;-68
2023/09/17 04:12:05;;;;;;;10.55;7.53;;;;;;;;;;7365501;19;20015;-67
2023/09/17 04:14:31;;;;;;;12.88;8.25;;;;;;;;;;7366972;19;20074;-67
2023/09/17 04:17:00;;;;;;;13.75;8.25;;;;;;;;;;7385835;19;20419;-67
2023/09/17 04:19:28;;;;;;;12.05;7.57;;;;;;;;;;7365359;19;20028;-67
2023/09/17 04:21:53;;;;;;;9.57;7.45;;;;;;;;;;7366471;19;20006;-68
2023/09/17 04:24:18;;;;;;;10.38;7.80;;;;;;;;;;7365389;19;20043;-68
2023/09/17 04:26:45;;;;;;;10.63;7.65;;;;;;;;;;7367103;19;20035;-66
2023/09/17 04:29:12;;;;;;;11.80;8.45;;;;;;;;;;7388715;19;20003;-67
2023/09/17 04:31:37;;;;;;;11.60;8.18;;;;;;;;;;7365694;19;20792;-67
2023/09/17 04:34:03;;;;;;;11.38;7.57;;;;;;;;;;7365432;19;20011;-67
2023/09/17 04:36:28;;;;;;;11.30;7.75;;;;;;;;;;7366110;19;20494;-67
2023/09/17 04:38:53;;;;;;;10.85;7.85;;;;;;;;;;7366715;19;20021;-67
2023/09/17 04:41:19;;;;;;;11.75;7.55;;;;;;;;;;7366001;19;20010;-66
2023/09/17 04:43:44;;;;;;;11.57;8.07;;;;;;;;;;7384889;19;20006;-67
2023/09/17 04:46:10;;;;;;;11.27;7.53;;;;;;;;;;7364662;19;20010;-67
2023/09/17 04:48:35;;;;;;;10.93;8.10;;;;;;;;;;7368342;19;20010;-67
2023/09/17 04:51:01;;;;;;;11.05;7.95;;;;;;;;;;7373129;19;20010;-68
2023/09/17 04:53:26;;;;;;;11.38;7.68;;;;;;;;;;7370798;19;19991;-70
2023/09/17 04:55:52;;;;;;;13.13;8.52;;;;;;;;;;7394014;19;20002;-67
2023/09/17 04:58:17;;;;;;;11.82;8.30;;;;;;;;;;7372606;19;20003;-67
2023/09/17 05:00:44;;;;;;;11.68;8.35;;;;;;;;;;7371304;19;20517;-67
2023/09/17 05:03:11;;;;;;;13.55;8.98;;;;;;;;;;7371602;19;20045;-67
2023/09/17 05:05:36;;;;;;;13.13;8.55;;;;;;;;;;7373707;19;20007;-67
2023/09/17 05:08:03;;;;;;;13.65;8.38;;;;;;;;;;7396399;19;20006;-66
2023/09/17 05:10:28;;;;;;;13.23;8.52;;;;;;;;;;7372969;19;20010;-66
2023/09/17 05:12:53;;;;;;;14.55;9.05;;;;;;;;;;7370731;19;20058;-66
2023/09/17 05:15:19;;;;;;;11.80;8.95;;;;;;;;;;7371607;19;20027;-67
2023/09/17 05:17:44;;;;;;;12.55;8.65;;;;;;;;;;7372822;19;20396;-67
2023/09/17 05:20:11;;;;;;;12.75;9.20;;;;;;;;;;7394484;19;19998;-66
2023/09/17 05:22:36;;;;;;;12.95;9.07;;;;;;;;;;7369952;19;20387;-63
2023/09/17 05:25:07;;;;;;;12.50;8.48;;;;;;;;;;7371326;19;20007;-61
2023/09/17 05:27:33;;;;;;;12.32;8.60;;;;;;;;;;7373354;19;20010;-62
2023/09/17 05:29:59;;;;;;;12.05;9.20;;;;;;;;;;7372649;19;20031;-62
2023/09/17 05:32:24;;;;;;;13.60;8.98;;;;;;;;;;7370990;19;20015;-61
2023/09/17 05:34:50;;;;;;;13.07;9.40;;;;;;;;;;7393435;19;19995;-61
2023/09/17 05:37:16;;;;;;;11.82;8.65;;;;;;;;;;7371021;19;20010;-61
2023/09/17 05:39:41;;;;;;;12.85;9.43;;;;;;;;;;7371196;19;20115;-61
2023/09/17 05:42:06;;;;;;;12.07;9.00;;;;;;;;;;7372103;19;20010;-60
2023/09/17 05:44:31;;;;;;;12.15;8.77;;;;;;;;;;7373475;19;20013;-61
2023/09/17 05:46:57;;;;;;;12.55;8.93;;;;;;;;;;7396380;19;20018;-60
2023/09/17 05:49:22;;;;;;;13.43;9.13;;;;;;;;;;7371326;19;20698;-61
2023/09/17 05:51:47;;;;;;;14.85;9.55;;;;;;;;;;7369261;19;20011;-61
2023/09/17 05:54:13;;;;;;;11.82;8.50;;;;;;;;;;7371192;19;20010;-61
2023/09/17 05:56:38;;;;;;;13.30;8.88;;;;;;;;;;7370666;19;20018;-60
2023/09/17 05:59:03;;;;;;;11.25;8.38;;;;;;;;;;7393854;19;20009;-60
2023/09/17 06:01:30;;;;;;;12.90;9.02;;;;;;;;;;7369585;19;20018;-60
2023/09/17 06:03:55;;;;;;;14.98;9.55;;;;;;;;;;7369687;19;20015;-60
2023/09/17 06:06:20;;;;;;;12.80;9.27;;;;;;;;;;7370855;19;20025;-61
2023/09/17 06:08:45;;;;;;;12.93;8.63;;;;;;;;;;7371066;19;20039;-61
2023/09/17 06:11:11;;;;;;;13.40;9.07;;;;;;;;;;7393308;19;20010;-62
2023/09/17 06:13:36;;;;;;;13.02;9.15;;;;;;;;;;7368758;19;20014;-62
2023/09/17 06:16:02;;;;;;;13.30;9.90;;;;;;;;;;7368685;19;20107;-61
2023/09/17 06:18:29;;;;;;;12.25;9.27;;;;;;;;;;7371096;19;20108;-62
2023/09/17 06:20:54;;;;;;;13.02;8.75;;;;;;;;;;7370754;19;20062;-61
2023/09/17 06:23:20;;;;;;;14.68;9.30;;;;;;;;;;7367621;19;20015;-62
2023/09/17 06:25:45;;;;;;;13.20;9.32;;;;;;;;;;7392586;19;20062;-62
2023/09/17 06:28:10;;;;;;;15.93;10.60;;;;;;;;;;7370786;19;20015;-62
2023/09/17 06:30:36;;;;;;;12.18;9.13;;;;;;;;;;7367422;19;20688;-62
2023/09/17 06:33:03;;;;;;;14.32;9.60;;;;;;;;;;7367029;19;20018;-64
2023/09/17 06:35:28;;;;;;;12.63;9.20;;;;;;;;;;7369455;19;20465;-62
2023/09/17 06:37:54;;;;;;;11.63;9.40;;;;;;;;;;7386330;19;20009;-61
2023/09/17 06:40:19;;;;;;;11.82;8.77;;;;;;;;;;7369447;19;20017;-62
2023/09/17 06:42:44;;;;;;;11.73;8.88;;;;;;;;;;7367477;19;20059;-66
2023/09/17 06:45:10;;;;;;;11.73;7.72;;;;;;;;;;7369286;19;20014;-67
2023/09/17 06:47:36;;;;;;;11.48;7.85;;;;;;;;;;7370131;19;20010;-67
2023/09/17 06:50:01;;;;;;;13.77;9.32;;;;;;;;;;7391293;19;20086;-65
2023/09/17 06:52:27;;;;;;;13.55;8.15;;;;;;;;;;7368115;19;20006;-65
2023/09/17 06:54:52;;;;;;;10.25;7.28;;;;;;;;;;7369488;19;20032;-66
2023/09/17 06:57:17;;;;;;;10.68;8.10;;;;;;;;;;7368340;19;20017;-66
2023/09/17 06:59:43;;;;;;;10.95;8.18;;;;;;;;;;7369367;19;20017;-66
2023/09/17 07:02:09;;;;;;;10.65;8.20;;;;;;;;;;7389966;19;20014;-66
2023/09/17 07:04:34;;;;;;;11.32;7.55;;;;;;;;;;7369272;19;20354;-66
2023/09/17 07:07:00;;;;;;;11.65;8.05;;;;;;;;;;7368782;19;20038;-65
2023/09/17 07:09:28;;;;;;;11.95;8.35;;;;;;;;;;7369575;19;20007;-65
2023/09/17 07:11:53;;;;;;;10.63;8.48;;;;;;;;;;7365436;19;20066;-65
2023/09/17 07:14:19;;;;;;;10.15;8.27;;;;;;;;;;7369128;19;20042;-66
2023/09/17 07:16:44;;;;;;;13.10;8.48;;;;;;;;;;7388947;19;20607;-66
2023/09/17 07:19:10;;;;;;;10.55;8.02;;;;;;;;;;7369141;19;20017;-65
2023/09/17 07:21:35;;;;;;;11.07;8.63;;;;;;;;;;7367133;19;20010;-66
2023/09/17 07:24:00;;;;;;;12.25;8.50;;;;;;;;;;7367352;19;20014;-66
2023/09/17 07:26:26;;;;;;;12.07;8.23;;;;;;;;;;7369163;19;20003;-66
2023/09/17 07:28:51;;;;;;;13.20;8.50;;;;;;;;;;7390658;19;19995;-66
2023/09/17 07:31:16;;;;;;;11.23;7.93;;;;;;;;;;7368265;19;20030;-66
2023/09/17 07:33:42;;;;;;;11.32;8.88;;;;;;;;;;7367638;19;20027;-66
2023/09/17 07:36:09;;;;;;;10.75;7.97;;;;;;;;;;7367950;19;20006;-66
2023/09/17 07:38:35;;;;;;;14.65;8.30;;;;;;;;;;7367411;19;20548;-66
2023/09/17 07:41:00;;;;;;;10.30;8.40;;;;;;;;;;7389358;19;20011;-66
2023/09/17 07:43:25;;;;;;;10.18;7.38;;;;;;;;;;7366151;19;20141;-66
2023/09/17 07:45:50;;;;;;;10.35;7.63;;;;;;;;;;7367731;19;20011;-66
2023/09/17 07:48:16;;;;;;;10.55;7.40;;;;;;;;;;7368081;19;20016;-66
2023/09/17 07:50:42;;;;;;;11.05;7.53;;;;;;;;;;7367554;19;20007;-66
2023/09/17 07:53:07;;;;;;;9.70;6.93;;;;;;;;;;7387256;19;20357;-66
2023/09/17 07:55:33;;;;;;;10.25;7.30;;;;;;;;;;7366768;19;20013;-66
2023/09/17 07:57:58;;;;;;;11.38;7.40;;;;;;;;;;7367088;19;20021;-65
2023/09/17 08:00:24;;;;;;;10.10;6.90;;;;;;;;;;7367264;19;20014;-65
2023/09/17 08:02:50;;;;;;;9.13;6.70;;;;;;;;;;7366771;19;20006;-66
2023/09/17 08:05:17;;;;;;;10.57;6.57;;;;;;;;;;7367040;19;20070;-65
2023/09/17 08:07:43;;;;;;;9.25;7.28;;;;;;;;;;7388778;19;20493;-65
2023/09/17 08:10:09;;;;;;;10.32;7.78;;;;;;;;;;7365988;19;20006;-66
2023/09/17 08:12:34;;;;;;;7.78;6.05;;;;;;;;;;7366247;19;20010;-66
2023/09/17 08:15:00;;;;;;;8.93;5.82;;;;;;;;;;7366723;19;20003;-66
2023/09/17 08:17:26;;;;;;;9.13;5.78;;;;;;;;;;7367178;19;20005;-66
2023/09/17 08:19:51;;;;;;;9.52;6.50;;;;;;;;;;7388406;19;20083;-67
2023/09/17 08:22:17;;;;;;;9.48;6.35;;;;;;;;;;7364005;19;20006;-65
2023/09/17 08:24:43;;;;;;;9.82;5.63;;;;;;;;;;7372244;19;20492;-66
2023/09/17 08:27:09;;;;;;;9.27;5.75;;;;;;;;;;7374839;19;20362;-65
2023/09/17 08:29:34;;;;;;;8.60;6.18;;;;;;;;;;7374189;19;20050;-65
2023/09/17 08:32:00;;;;;;;11.38;6.03;;;;;;;;;;7394498;19;20638;-65
2023/09/17 08:34:25;;;;;;;8.02;5.80;;;;;;;;;;7373951;19;20025;-65
2023/09/17 08:36:51;;;;;;;10.57;6.97;;;;;;;;;;7372771;19;20389;-66
2023/09/17 08:39:16;;;;;;;10.77;6.60;;;;;;;;;;7374005;19;20663;-65
2023/09/17 08:41:42;;;;;;;11.63;7.05;;;;;;;;;;7373517;19;20038;-66
2023/09/17 08:44:08;;;;;;;9.32;7.40;;;;;;;;;;7395069;19;20006;-66
2023/09/17 08:46:35;;;;;;;9.25;7.03;;;;;;;;;;7373366;19;20006;-66
2023/09/17 08:49:01;;;;;;;8.88;6.45;;;;;;;;;;7373556;19;20007;-65
2023/09/17 08:51:30;;;;;;;9.68;6.70;;;;;;;;;;7373262;19;20010;-66
2023/09/17 08:54:02;;;;;;;10.13;7.78;;;;;;;;;;7373450;19;20082;-66
2023/09/17 08:56:30;;;;;;;9.57;6.57;;;;;;;;;;7372202;19;20022;-66
2023/09/17 08:59:03;;;;;;;8.90;5.72;;;;;;;;;;7395386;19;20492;-66
2023/09/17 09:01:29;;;;;;;8.68;6.30;;;;;;;;;;7372093;19;20038;-66
2023/09/17 09:03:56;;;;;;;10.02;6.35;;;;;;;;;;7372986;19;20002;-66
2023/09/17 09:06:24;;;;;;;7.88;5.60;;;;;;;;;;7372032;19;20038;-66
2023/09/17 09:08:50;;;;;;;9.38;6.07;;;;;;;;;;7373437;19;20012;-66
2023/09/17 09:11:16;;;;;;;9.60;5.90;;;;;;;;;;7373268;19;20070;-67
2023/09/17 09:13:42;;;;;;;8.85;5.82;;;;;;;;;;7390486;19;20448;-66
2023/09/17 09:16:08;;;;;;;8.85;5.07;;;;;;;;;;7370032;19;20115;-67
2023/09/17 09:18:34;;;;;;;7.93;5.25;;;;;;;;;;7371758;19;20002;-66
2023/09/17 09:21:00;;;;;;;7.55;4.20;;;;;;;;;;7372744;19;20038;-66
2023/09/17 09:23:25;;;;;;;7.80;4.63;;;;;;;;;;7370117;19;20003;-66
2023/09/17 09:25:51;;;;;;;7.10;4.13;;;;;;;;;;7394573;19;20550;-66
2023/09/17 09:28:16;;;;;;;7.32;4.50;;;;;;;;;;7372356;19;20477;-66
2023/09/17 09:30:43;;;;;;;9.48;3.90;;;;;;;;;;7372525;19;20010;-66
2023/09/17 09:33:08;;;;;;;7.22;4.25;;;;;;;;;;7370983;19;20019;-66
2023/09/17 09:35:34;;;;;;;5.88;3.90;;;;;;;;;;7369718;19;20010;-66
2023/09/17 09:38:01;;;;;;;7.28;4.28;;;;;;;;;;7394766;19;20062;-66
2023/09/17 09:40:27;;;;;;;7.72;3.95;;;;;;;;;;7371491;19;20501;-66
2023/09/17 09:42:52;;;;;;;7.25;3.90;;;;;;;;;;7369158;19;20010;-66
2023/09/17 09:45:18;;;;;;;6.45;4.40;;;;;;;;;;7372214;19;20013;-66
2023/09/17 09:47:48;;;;;;;6.25;4.47;;;;;;;;;;7372722;19;20052;-67
2023/09/17 09:50:21;;;;;;;7.25;4.38;;;;;;;;;;7372292;19;20006;-66
2023/09/17 09:52:48;;;;;;;7.15;4.10;;;;;;;;;;7391225;19;20006;-66
2023/09/17 09:55:13;;;;;;;7.97;4.47;;;;;;;;;;7370364;19;20046;-67
2023/09/17 09:57:39;;;;;;;8.85;4.68;;;;;;;;;;7372105;19;20707;-66
2023/09/17 10:00:14;;;;;;;8.35;5.20;;;;;;;;;;7370459;19;20006;-66
2023/09/17 10:02:40;;;;;;;9.95;4.53;;;;;;;;;;7370454;19;20035;-66
2023/09/17 10:05:18;;;;;;;7.28;4.70;;;;;;;;;;7393117;19;20761;-66
2023/09/17 10:07:47;;;;;;;8.23;4.35;;;;;;;;;;7371762;19;20023;-66
2023/09/17 10:10:14;;;;;;;6.83;4.17;;;;;;;;;;7370303;19;20010;-66
2023/09/17 10:12:39;;;;;;;6.47;4.05;;;;;;;;;;7369949;19;20280;-66
2023/09/17 10:15:06;;;;;;;8.57;4.25;;;;;;;;;;7370228;19;20010;-66
2023/09/17 10:17:35;;;;;;;6.78;3.88;;;;;;;;;;7371042;19;20397;-66
2023/09/17 10:20:06;;;;;;;7.53;3.30;;;;;;;;;;7393111;19;20014;-66
2023/09/17 10:22:36;;;;;;;5.57;3.25;;;;;;;;;;7368192;19;20006;-65
2023/09/17 10:25:08;;;;;;;6.88;3.42;;;;;;;;;;7370145;19;20014;-66
2023/09/17 10:27:36;;;;;;;6.72;3.22;;;;;;;;;;7370357;19;20007;-66
2023/09/17 10:30:03;;;;;;;7.43;4.47;;;;;;;;;;7370144;19;20010;-65
2023/09/17 10:32:30;;;;;;;7.68;3.72;;;;;;;;;;7369486;19;20018;-65
2023/09/17 10:34:57;;;;;;;8.82;3.90;;;;;;;;;;7392011;19;20014;-65
2023/09/17 10:37:25;;;;;;;5.88;3.90;;;;;;;;;;7369591;19;20420;-65
2023/09/17 10:39:52;;;;;;;6.32;3.90;;;;;;;;;;7369461;19;20018;-65
2023/09/17 10:42:20;;;;;;;8.95;4.22;;;;;;;;;;7368168;19;20295;-65
2023/09/17 10:44:47;;;;;;;6.70;3.60;;;;;;;;;;7368988;19;20438;-65
2023/09/17 10:47:12;;;;;;;8.90;4.10;;;;;;;;;;7380356;19;20013;-65
2023/09/17 10:49:38;;;;;;;6.45;3.80;;;;;;;;;;7386955;19;20459;-65
2023/09/17 10:52:05;;;;;;;8.93;4.35;;;;;;;;;;7367553;19;20006;-65
2023/09/17 10:54:31;;;;;;;7.53;4.40;;;;;;;;;;7368825;19;20046;-68
2023/09/17 10:56:57;;;;;;;6.90;4.25;;;;;;;;;;7361397;19;20873;-69
2023/09/17 10:59:23;;;;;;;7.78;4.22;;;;;;;;;;7364047;19;20002;-71
2023/09/17 11:01:49;;;;;;;5.82;3.72;;;;;;;;;;7385267;19;20123;-70
2023/09/17 11:04:18;;;;;;;8.15;4.50;;;;;;;;;;7363344;19;20019;-69
2023/09/17 11:06:46;;;;;;;8.18;4.32;;;;;;;;;;7364997;19;20010;-69
2023/09/17 11:09:13;;;;;;;7.65;4.63;;;;;;;;;;7365153;19;20441;-69
2023/09/17 11:11:40;;;;;;;6.95;4.63;;;;;;;;;;7363567;19;20022;-70
2023/09/17 11:14:06;;;;;;;7.80;4.13;;;;;;;;;;7387510;19;20071;-70
2023/09/17 11:16:34;;;;;;;7.10;4.07;;;;;;;;;;7364854;19;20067;-70
2023/09/17 11:19:09;;;;;;;10.45;4.30;;;;;;;;;;7366584;19;20011;-70
2023/09/17 11:21:39;;;;;;;5.40;3.75;;;;;;;;;;7366913;19;20922;-69
2023/09/17 11:24:07;;;;;;;9.07;3.92;;;;;;;;;;7364458;19;20019;-69
2023/09/17 11:26:35;;;;;;;6.32;3.88;;;;;;;;;;7366990;19;20838;-70
2023/09/17 11:29:05;;;;;;;8.25;4.10;;;;;;;;;;7387915;19;20010;-70
2023/09/17 11:31:36;;;;;;;7.03;4.00;;;;;;;;;;7365790;19;20010;-70
2023/09/17 11:34:05;;;;;;;7.10;3.97;;;;;;;;;;7363854;19;20500;-71
2023/09/17 11:36:32;;;;;;;6.70;4.10;;;;;;;;;;7365505;19;20015;-70
2023/09/17 11:39:05;;;;;;;7.57;3.80;;;;;;;;;;7365745;19;20022;-69
2023/09/17 11:41:33;;;;;;;7.90;3.75;;;;;;;;;;7364972;19;20006;-69
2023/09/17 11:43:59;;;;;;;8.48;4.00;;;;;;;;;;7386594;19;20003;-69
2023/09/17 11:46:24;;;;;;;6.68;3.90;;;;;;;;;;7364313;19;20006;-69
2023/09/17 11:48:50;;;;;;;5.45;3.25;;;;;;;;;;7365919;19;20014;-69
2023/09/17 11:51:27;;;;;;;5.28;3.47;;;;;;;;;;7364337;19;20460;-69
2023/09/17 11:54:03;;;;;;;5.90;3.60;;;;;;;;;;7364435;19;20077;-69
2023/09/17 11:56:30;;;;;;;7.18;3.70;;;;;;;;;;7363485;19;20013;-70
2023/09/17 11:59:00;;;;;;;5.30;3.20;;;;;;;;;;7384513;19;19994;-68
2023/09/17 12:01:28;;;;;;;6.30;3.20;;;;;;;;;;7363434;19;20908;-69
2023/09/17 12:03:54;;;;;;;8.50;3.58;;;;;;;;;;7364112;19;20082;-68
2023/09/17 12:06:20;;;;;;;9.65;3.35;;;;;;;;;;7363195;19;20040;-69
2023/09/17 12:08:47;;;;;;;6.40;3.35;;;;;;;;;;7366031;19;20689;-68
2023/09/17 12:11:21;;;;;;;6.13;3.50;;;;;;;;;;7374466;19;20020;-68
2023/09/17 12:13:53;;;;;;;7.55;3.80;;;;;;;;;;7385812;19;20026;-68
2023/09/17 12:16:22;;;;;;;6.80;3.55;;;;;;;;;;7361277;19;20006;-68
2023/09/17 12:18:49;;;;;;;7.95;3.83;;;;;;;;;;7365269;19;20036;-69
2023/09/17 12:21:14;;;;;;;8.55;3.80;;;;;;;;;;7360876;19;20003;-69
2023/09/17 12:26:36;;;;;;;5.20;3.05;;;;;;;;;;7362097;19;20139;-68
2023/09/17 12:29:07;;;;;;;6.63;3.47;;;;;;;;;;7385967;19;20070;-69
2023/09/17 12:31:36;;;;;;;7.43;3.42;;;;;;;;;;7362991;19;20348;-68
2023/09/17 12:34:02;;;;;;;5.70;3.67;;;;;;;;;;7363225;19;20081;-68
2023/09/17 12:36:27;;;;;;;7.13;3.45;;;;;;;;;;7362141;19;20010;-68
2023/09/17 12:38:53;;;;;;;6.13;3.92;;;;;;;;;;7364268;19;20084;-68
2023/09/17 12:41:18;;;;;;;6.00;3.30;;;;;;;;;;7361652;19;20031;-69
2023/09/17 12:43:43;;;;;;;7.90;3.27;;;;;;;;;;7382779;19;20379;-69
2023/09/17 12:46:09;;;;;;;8.45;3.83;;;;;;;;;;7361717;19;20247;-69
2023/09/17 12:48:34;;;;;;;7.22;3.60;;;;;;;;;;7362970;19;20033;-69
2023/09/17 12:51:00;;;;;;;5.93;3.40;;;;;;;;;;7363809;19;20006;-68
2023/09/17 12:53:25;;;;;;;5.45;3.17;;;;;;;;;;7359635;19;19998;-69
2023/09/17 12:55:51;;;;;;;8.45;3.38;;;;;;;;;;7384763;19;20005;-69
2023/09/17 12:58:19;;;;;;;7.57;3.60;;;;;;;;;;7362836;19;20467;-69
2023/09/17 13:00:44;;;;;;;6.05;3.50;;;;;;;;;;7365819;19;20712;-69
2023/09/17 13:03:14;;;;;;;6.95;3.35;;;;;;;;;;7365091;19;20088;-68
2023/09/17 13:05:40;;;;;;;6.47;3.30;;;;;;;;;;7366479;19;20039;-69
2023/09/17 13:08:06;;;;;;;5.53;3.30;;;;;;;;;;7387238;19;20344;-69
2023/09/17 13:10:32;;;;;;;6.40;3.30;;;;;;;;;;7370788;19;20017;-69
2023/09/17 13:12:57;;;;;;;5.95;3.08;;;;;;;;;;7371092;19;20007;-69
2023/09/17 13:15:22;;;;;;;7.13;3.28;;;;;;;;;;7372339;19;20018;-68
2023/09/17 13:17:48;;;;;;;5.15;3.00;;;;;;;;;;7373037;19;20025;-68
2023/09/17 13:20:14;;;;;;;9.30;3.35;;;;;;;;;;7375023;19;20002;-68
2023/09/17 13:22:40;;;;;;;7.35;3.20;;;;;;;;;;7391481;19;20007;-69
2023/09/17 13:25:06;;;;;;;8.32;3.10;;;;;;;;;;7372417;19;20136;-69
2023/09/17 13:27:32;;;;;;;6.70;3.40;;;;;;;;;;7373495;19;20021;-69
2023/09/17 13:29:57;;;;;;;8.10;3.50;;;;;;;;;;7371778;19;20007;-69
2023/09/17 13:32:22;;;;;;;5.13;3.10;;;;;;;;;;7370264;19;20493;-69
2023/09/17 13:34:48;;;;;;;6.53;3.25;;;;;;;;;;7394194;19;20006;-68
2023/09/17 13:37:15;;;;;;;6.93;3.25;;;;;;;;;;7371098;19;20014;-69
2023/09/17 13:39:44;;;;;;;5.57;3.10;;;;;;;;;;7371444;19;20399;-68
2023/09/17 13:42:10;;;;;;;8.23;3.40;;;;;;;;;;7371153;19;20424;-70
2023/09/17 13:44:36;;;;;;;6.88;3.40;;;;;;;;;;7373574;19;20002;-70
2023/09/17 13:47:02;;;;;;;8.70;4.15;;;;;;;;;;7394001;19;20448;-70
2023/09/17 13:49:28;;;;;;;7.22;3.13;;;;;;;;;;7371948;19;20348;-69
2023/09/17 13:51:53;;;;;;;8.40;3.70;;;;;;;;;;7369774;19;20017;-69
2023/09/17 13:54:19;;;;;;;7.50;2.97;;;;;;;;;;7371744;19;20030;-69
2023/09/17 13:56:45;;;;;;;6.80;3.40;;;;;;;;;;7370871;19;20043;-68
2023/09/17 13:59:10;;;;;;;7.85;3.20;;;;;;;;;;7394689;19;19995;-69
2023/09/17 14:01:36;;;;;;;6.03;3.45;;;;;;;;;;7371441;19;20006;-69
2023/09/17 14:04:01;;;;;;;6.05;3.08;;;;;;;;;;7371608;19;20087;-69
2023/09/17 14:06:26;;;;;;;10.75;3.47;;;;;;;;;;7371656;19;20124;-69
2023/09/17 14:08:52;;;;;;;6.57;3.60;;;;;;;;;;7371628;19;20077;-69
2023/09/17 14:11:18;;;;;;;7.38;3.20;;;;;;;;;;7371279;19;20279;-69
2023/09/17 14:13:43;;;;;;;8.73;3.47;;;;;;;;;;7389673;19;20013;-69
2023/09/17 14:16:09;;;;;;;11.27;3.55;;;;;;;;;;7369176;19;20115;-69
2023/09/17 14:18:34;;;;;;;8.15;3.60;;;;;;;;;;7371473;19;20041;-69
2023/09/17 14:21:02;;;;;;;6.95;3.20;;;;;;;;;;7369676;19;20610;-69
2023/09/17 14:23:28;;;;;;;7.40;3.42;;;;;;;;;;7369056;19;20006;-69
2023/09/17 14:25:54;;;;;;;7.72;3.45;;;;;;;;;;7391813;19;20039;-68
2023/09/17 14:28:19;;;;;;;7.30;3.10;;;;;;;;;;7370555;19;20006;-67
2023/09/17 14:30:45;;;;;;;7.63;3.22;;;;;;;;;;7370725;19;20751;-69
2023/09/17 14:33:10;;;;;;;7.68;3.38;;;;;;;;;;7369313;19;20010;-68
2023/09/17 14:35:35;;;;;;;6.82;3.38;;;;;;;;;;7369961;19;20111;-68